Aérodrome :
LOGIN :

S'inscrire | Disclaimer

   EN    FR    IT 

 










Légende :    VFR   VFR Marginal   IFR   IFR Intensif   IFR Très Intensif
Visi : 
Plafond : 
>= 8 km
>= 3000ft
5 à 8 km
1000 à 3000 ft
1500m à 5 km
500 à 1000 ft
800 à 1500m
200 à 500 ft
< 800m
< 200 ft
Symboles :   Orages  Brouillard  Fortes neiges  Fortes précipitations  Vent > 20 kt
SIGMETs :   Divers  Orages  Givrage  Turbulence  Onde Orograph.  Cendres Volcan.







- Altitude de l'aérodrome : 27 ft
- Code IATA : PMI


LEPA - Palma de Mallorca

DERNIER METAR :
  • 221830Z 22005KT 9999 FEW020 26/22 Q1022 NOSIG

METARs EXPIRÉS :
  • 221800Z 23005KT 190V250 9999 FEW020 26/22 Q1022 NOSIG
  • 221730Z 23007KT 9999 FEW020 26/22 Q1021 NOSIG
  • 221700Z 23008KT 200V270 9999 FEW020 27/22 Q1021 NOSIG
  • 221630Z 22008KT 190V260 9999 FEW020 27/22 Q1021 NOSIG
  • 221600Z 23008KT 9999 FEW020 28/22 Q1021 NOSIG

TAF TAF LEPA
Valide du 22 à 18h jusqu'au 23 à 18h UTC


221700Z 2218/2318 22007KT 9999 FEW020 TX30/2312Z TN20/2306Z
BECMG 2218/2220 VRB03KT
PROB30
TEMPO 2300/2306 4000 BR
BECMG 2310/2312 22010KT
Pas de NOTAMs connus pour ce terrain.



MET'MAP, la Météo Aéronautique d'un coup d'oeil ! - Copyright ORBIFLY Décembre 2007 - Disclaimer

ORBIFLY MET'MAP TEAM :

Programmation & Développement : Alexandra Zaïnal
Conception & Développement : Baudouin d'Aumeries
Co-Programmation & Développement : Marc-Olivier Méhu
Soutien technique & logistique : Manuel Goepfert

Contact : metmap@orbifly.com




SOURCES & CREDITS :

   NOAA